Radiosonde details



Informationen :

Serial : D26003234
Type : Graw DFM
Frequency : 403.010MHz
Launchsite : Tampa Bay Area
Nearest town : Belleair Beach, US (42.3km)

Altitude (Max) : 33128m at 2026-09-04 13:00:12
Speed (Max) : 96km/h at altitude 23969m

Average speed : 41km/h
Average ascent rate : 5m/s
Average descent rate : -6m/s
Ascent rate (Max) : 10.0m/s
Descent rate (Max): -40.4m/s

First frame :
ARGUS2 at 2026-09-04 11:28:16 at altitude 2793m (OG: 2739m)
Last frame :
ARGUS2 at 2026-09-04 14:29:59 at altitude 1980m (OG: 1938m)

Flighttime : 3h1m43s
Ascent time : 1h31m56s
Descent time : 1h29m47s
Uptime : -
Killtimer : -

Distance (Straight line distance): 92km

Distance (Route):


Frames : 457


Measurement :

Temperature : 17.4°C
Humidity : 0%
Pressure : 0hPa


Vertical profile (SkewT) :


Elevation profile :



Receiving stations :


Receiver Frames First received Last received
ARGUS2 457 2026-09-04 11:28:16 2026-09-04 14:29:59

Share per receiver :



All frames :


Receiver Date Latitude Longitude Direction Speed Altitude Climb Temperature Humidity Pressure Voltage Killtimer Uptime BKT XDATA
ARGUS22026-09-04 14:29:5928.09110-83.2298629°13km/h1980m-3.0m/s17.4°C0%0hPa0V00:00:0000:00:0000:00:00
ARGUS22026-09-04 14:29:2928.08998-83.2306742°24km/h2073m-2.9m/s16.6°C0%0hPa0V00:00:0000:00:0000:00:00
ARGUS22026-09-04 14:29:0628.08902-83.2313930°26km/h2143m-3.1m/s16.1°C0%0hPa0V00:00:0000:00:0000:00:00
ARGUS22026-09-04 14:28:4128.08781-83.2319719°15km/h2220m-3.2m/s15.7°C0%0hPa0V00:00:0000:00:0000:00:00
ARGUS22026-09-04 14:28:2128.08695-83.2324443°18km/h2287m-3.1m/s15.3°C0%0hPa0V00:00:0000:00:0000:00:00
ARGUS22026-09-04 14:16:0428.05767-83.2459131°20km/h4324m-2.4m/s3.6°C0%0hPa0V00:00:0000:00:0000:00:00
ARGUS22026-09-04 14:15:4328.05653-83.2462026km/h4373m-2.2m/s3.3°C0%0hPa0V00:00:0000:00:0000:00:00
ARGUS22026-09-04 14:15:2128.05551-83.2464213°27km/h4419m-2.2m/s3.3°C0%0hPa0V00:00:0000:00:0000:00:00
ARGUS22026-09-04 14:15:0128.05464-83.2466230°20km/h4464m-2.3m/s3.3°C0%0hPa0V00:00:0000:00:0000:00:00
ARGUS22026-09-04 14:14:4028.05357-83.2468027°16km/h4518m-2.5m/s3.0°C0%0hPa0V00:00:0000:00:0000:00:00
ARGUS22026-09-04 14:14:1928.05245-83.2470323°16km/h4571m-2.5m/s2.7°C0%0hPa0V00:00:0000:00:0000:00:00
ARGUS22026-09-04 14:13:5928.05129-83.2472626°16km/h4624m-2.5m/s2.2°C0%0hPa0V00:00:0000:00:0000:00:00
ARGUS22026-09-04 14:13:3428.04977-83.24756357°27km/h4688m-2.8m/s1.5°C0%0hPa0V00:00:0000:00:0000:00:00
ARGUS22026-09-04 14:13:1328.04872-83.2477429km/h4741m-2.7m/s1.3°C0%0hPa0V00:00:0000:00:0000:00:00
ARGUS22026-09-04 14:12:5328.04755-83.2479616km/h4797m-2.5m/s0.8°C0%0hPa0V00:00:0000:00:0000:00:00
ARGUS22026-09-04 14:12:3128.04642-83.2483424°16km/h4855m-2.8m/s0.4°C0%0hPa0V00:00:0000:00:0000:00:00
ARGUS22026-09-04 14:12:1028.04529-83.2487732°16km/h4912m-3.0m/s0.0°C0%0hPa0V00:00:0000:00:0000:00:00
ARGUS22026-09-04 14:11:5028.04418-83.2491328°16km/h4971m-2.8m/s-0.2°C0%0hPa0V00:00:0000:00:0000:00:00
ARGUS22026-09-04 14:11:2428.04282-83.2496220°29km/h5043m-2.7m/s-0.8°C0%0hPa0V00:00:0000:00:0000:00:00
ARGUS22026-09-04 14:11:0428.04167-83.2499227km/h5098m-2.7m/s-1.1°C0%0hPa0V00:00:0000:00:0000:00:00
ARGUS22026-09-04 14:10:4228.04047-83.2501627km/h5159m-2.6m/s-1.5°C0%0hPa0V00:00:0000:00:0000:00:00
ARGUS22026-09-04 14:09:0428.03547-83.2515728°31km/h5450m-3.0m/s-3.6°C0%0hPa0V00:00:0000:00:0000:00:00
ARGUS22026-09-04 14:08:4128.03407-83.2520712°15km/h5518m-3.1m/s-3.9°C0%0hPa0V00:00:0000:00:0000:00:00
ARGUS22026-09-04 14:08:2028.03314-83.2524538°18km/h5576m-2.9m/s-4.3°C0%0hPa0V00:00:0000:00:0000:00:00
ARGUS22026-09-04 14:07:5928.03215-83.2528324°26km/h5640m-2.8m/s-4.7°C0%0hPa0V00:00:0000:00:0000:00:00
ARGUS22026-09-04 14:07:3928.03116-83.2531713°27km/h5699m-2.6m/s-5.0°C0%0hPa0V00:00:0000:00:0000:00:00
ARGUS22026-09-04 14:07:1928.03013-83.2533615km/h5757m-2.6m/s-5.2°C0%0hPa0V00:00:0000:00:0000:00:00
ARGUS22026-09-04 14:06:5828.02924-83.2536843°20km/h5810m-2.5m/s-5.8°C0%0hPa0V00:00:0000:00:0000:00:00
ARGUS22026-09-04 14:06:3628.02815-83.2542126km/h5865m-2.3m/s-6.2°C0%0hPa0V00:00:0000:00:0000:00:00
ARGUS22026-09-04 14:06:1428.02720-83.2545546°13km/h5915m-2.4m/s-6.7°C0%0hPa0V00:00:0000:00:0000:00:00
ARGUS22026-09-04 14:05:5328.02629-83.2550634°24km/h5970m-2.4m/s-6.9°C0%0hPa0V00:00:0000:00:0000:00:00
ARGUS22026-09-04 14:05:3228.02496-83.25541358°33km/h6021m-2.6m/s-6.5°C0%0hPa0V00:00:0000:00:0000:00:00
ARGUS22026-09-04 14:05:1228.02347-83.25550358°22km/h6079m-2.4m/s-6.4°C0%0hPa0V00:00:0000:00:0000:00:00
ARGUS22026-09-04 14:04:5128.02202-83.2557917°37km/h6141m-3.0m/s-6.9°C0%0hPa0V00:00:0000:00:0000:00:00
ARGUS22026-09-04 14:04:3128.02045-83.25600357°33km/h6206m-3.0m/s-7.2°C0%0hPa0V00:00:0000:00:0000:00:00
ARGUS22026-09-04 14:04:1028.01910-83.25606348°26km/h6266m-2.8m/s-7.5°C0%0hPa0V00:00:0000:00:0000:00:00
ARGUS22026-09-04 14:03:4028.01718-83.25623350°29km/h6352m-2.2m/s-8.3°C0%0hPa0V00:00:0000:00:0000:00:00
ARGUS22026-09-04 14:03:2028.01589-83.2562923°20km/h6407m-2.3m/s-8.8°C0%0hPa0V00:00:0000:00:0000:00:00
ARGUS22026-09-04 14:02:5928.01471-83.2564325°20km/h6454m-1.9m/s-9.2°C0%0hPa0V00:00:0000:00:0000:00:00
ARGUS22026-09-04 14:02:3928.01349-83.2566422°27km/h6503m-2.5m/s-9.6°C0%0hPa0V00:00:0000:00:0000:00:00
ARGUS22026-09-04 14:02:1728.01216-83.25661345°31km/h6557m-2.8m/s-9.9°C0%0hPa0V00:00:0000:00:0000:00:00
ARGUS22026-09-04 14:01:5628.01095-83.25604319°24km/h6628m-3.5m/s-9.9°C0%0hPa0V00:00:0000:00:0000:00:00
ARGUS22026-09-04 14:01:3528.00999-83.25548331°13km/h6693m-3.5m/s-10.1°C0%0hPa0V00:00:0000:00:0000:00:00
ARGUS22026-09-04 14:01:1528.00905-83.25484348°18km/h6766m-4.2m/s-10.4°C0%0hPa0V00:00:0000:00:0000:00:00
ARGUS22026-09-04 14:00:5328.00798-83.25412334°31km/h6848m-3.9m/s-11.1°C0%0hPa0V00:00:0000:00:0000:00:00
ARGUS22026-09-04 14:00:3328.00693-83.25314312°33km/h6925m-3.7m/s-11.6°C0%0hPa0V00:00:0000:00:0000:00:00
ARGUS22026-09-04 14:00:1228.00595-83.25207314°18km/h7003m-3.4m/s-12.1°C0%0hPa0V00:00:0000:00:0000:00:00
ARGUS22026-09-04 13:59:5228.00507-83.25115337°22km/h7077m-3.6m/s-12.5°C0%0hPa0V00:00:0000:00:0000:00:00
ARGUS22026-09-04 13:59:1128.00303-83.24887299°27km/h7219m-3.2m/s-13.5°C0%0hPa0V00:00:0000:00:0000:00:00
ARGUS22026-09-04 13:58:5128.00196-83.24760302°27km/h7294m-3.5m/s-14.0°C0%0hPa0V00:00:0000:00:0000:00:00
ARGUS22026-09-04 13:58:3028.00086-83.24670316°37km/h7359m-3.3m/s-14.4°C0%0hPa0V00:00:0000:00:0000:00:00
ARGUS22026-09-04 13:58:1027.99971-83.24551303°29km/h7426m-2.9m/s-15.0°C0%0hPa0V00:00:0000:00:0000:00:00
ARGUS22026-09-04 13:57:4827.99849-83.24444314°22km/h7498m-4.6m/s-15.6°C0%0hPa0V00:00:0000:00:0000:00:00
ARGUS22026-09-04 13:57:2827.99717-83.24376321°31km/h7585m-3.8m/s-16.4°C0%0hPa0V00:00:0000:00:0000:00:00
ARGUS22026-09-04 13:57:0727.99605-83.24307333°18km/h7660m-4.4m/s-17.0°C0%0hPa0V00:00:0000:00:0000:00:00
ARGUS22026-09-04 13:56:4627.99462-83.24237330°24km/h7735m-3.5m/s-17.3°C0%0hPa0V00:00:0000:00:0000:00:00
ARGUS22026-09-04 13:56:2527.99297-83.24164326°38km/h7799m-2.5m/s-17.1°C0%0hPa0V00:00:0000:00:0000:00:00
ARGUS22026-09-04 13:56:0527.99102-83.24074337°31km/h7847m-2.1m/s-16.9°C0%0hPa0V00:00:0000:00:0000:00:00
ARGUS22026-09-04 13:55:4427.98916-83.23985346°44km/h7895m-2.4m/s-17.1°C0%0hPa0V00:00:0000:00:0000:00:00
ARGUS22026-09-04 13:55:2427.98712-83.23866332°51km/h7954m-3.0m/s-17.4°C0%0hPa0V00:00:0000:00:0000:00:00
ARGUS22026-09-04 13:55:0327.98518-83.23753327°51km/h8021m-3.1m/s-17.7°C0%0hPa0V00:00:0000:00:0000:00:00
ARGUS22026-09-04 13:54:4327.98299-83.23630336°38km/h8090m-3.6m/s-18.0°C0%0hPa0V00:00:0000:00:0000:00:00
ARGUS22026-09-04 13:54:2127.98061-83.23506332°57km/h8166m-3.6m/s-18.8°C0%0hPa0V00:00:0000:00:0000:00:00
ARGUS22026-09-04 13:54:0027.97849-83.23347326°40km/h8237m-2.8m/s-19.1°C0%0hPa0V00:00:0000:00:0000:00:00
ARGUS22026-09-04 13:53:4027.97611-83.23194322°46km/h8298m-2.4m/s-19.6°C0%0hPa0V00:00:0000:00:0000:00:00
ARGUS22026-09-04 13:53:1927.97381-83.23051323°53km/h8349m-2.5m/s-20.1°C0%0hPa0V00:00:0000:00:0000:00:00
ARGUS22026-09-04 13:52:5827.97190-83.22874327°38km/h8404m-2.8m/s-20.0°C0%0hPa0V00:00:0000:00:0000:00:00
ARGUS22026-09-04 13:52:3427.96947-83.22729322°42km/h8467m-2.0m/s-20.9°C0%0hPa0V00:00:0000:00:0000:00:00
ARGUS22026-09-04 13:52:1327.96735-83.22628333°33km/h8508m-1.5m/s-20.3°C0%0hPa0V00:00:0000:00:0000:00:00
ARGUS22026-09-04 13:51:5327.96540-83.22507337°53km/h8549m-2.2m/s-20.7°C0%0hPa0V00:00:0000:00:0000:00:00
ARGUS22026-09-04 13:51:3227.96336-83.22418353°38km/h8609m-2.5m/s-21.2°C0%0hPa0V00:00:0000:00:0000:00:00
ARGUS22026-09-04 13:51:1227.96147-83.22320336°51km/h8671m-2.9m/s-21.5°C0%0hPa0V00:00:0000:00:0000:00:00
ARGUS22026-09-04 13:50:5127.95954-83.22236343°29km/h8733m-2.7m/s-22.3°C0%0hPa0V00:00:0000:00:0000:00:00
ARGUS22026-09-04 13:50:3127.95767-83.22120337°49km/h8793m-2.9m/s-22.1°C0%0hPa0V00:00:0000:00:0000:00:00
ARGUS22026-09-04 13:50:1027.95608-83.22010314°29km/h8850m-2.7m/s-22.2°C0%0hPa0V00:00:0000:00:0000:00:00
ARGUS22026-09-04 13:49:5027.95437-83.21870339°46km/h8912m-3.1m/s-22.8°C0%0hPa0V00:00:0000:00:0000:00:00
ARGUS22026-09-04 13:49:2827.95270-83.21763313°35km/h8978m-3.1m/s-23.4°C0%0hPa0V00:00:0000:00:0000:00:00
ARGUS22026-09-04 13:49:0827.95099-83.21643343°44km/h9043m-3.3m/s-23.8°C0%0hPa0V00:00:0000:00:0000:00:00
ARGUS22026-09-04 13:48:4727.94938-83.21529314°44km/h9113m-3.5m/s-24.5°C0%0hPa0V00:00:0000:00:0000:00:00
ARGUS22026-09-04 13:48:2727.94774-83.21410339°29km/h9181m-3.6m/s-25.0°C0%0hPa0V00:00:0000:00:0000:00:00
ARGUS22026-09-04 13:48:0627.94633-83.21275324°46km/h9255m-3.5m/s-25.7°C0%0hPa0V00:00:0000:00:0000:00:00
ARGUS22026-09-04 13:47:4627.94496-83.21159306°24km/h9327m-3.7m/s-26.1°C0%0hPa0V00:00:0000:00:0000:00:00
ARGUS22026-09-04 13:47:2627.94350-83.21032345°37km/h9403m-4.0m/s-26.7°C0%0hPa0V00:00:0000:00:0000:00:00
ARGUS22026-09-04 13:47:0527.94214-83.20936309°33km/h9480m-3.9m/s-27.4°C0%0hPa0V00:00:0000:00:0000:00:00
ARGUS22026-09-04 13:46:4527.94058-83.20825349°29km/h9561m-3.9m/s-28.0°C0%0hPa0V00:00:0000:00:0000:00:00
ARGUS22026-09-04 13:46:2427.93932-83.20722317°42km/h9638m-3.9m/s-28.7°C0%0hPa0V00:00:0000:00:0000:00:00
ARGUS22026-09-04 13:46:0427.93788-83.20617308°22km/h9722m-4.1m/s-28.9°C0%0hPa0V00:00:0000:00:0000:00:00
ARGUS22026-09-04 13:45:4327.93657-83.20479333°44km/h9797m-3.9m/s-29.4°C0%0hPa0V00:00:0000:00:0000:00:00
ARGUS22026-09-04 13:45:2227.93512-83.20346303°38km/h9881m-4.4m/s-30.1°C0%0hPa0V00:00:0000:00:0000:00:00
ARGUS22026-09-04 13:44:4227.93225-83.20031321°49km/h10059m-4.3m/s-31.7°C0%0hPa0V00:00:0000:00:0000:00:00
ARGUS22026-09-04 13:44:2027.93083-83.19878300°40km/h10149m-4.4m/s-32.5°C0%0hPa0V00:00:0000:00:0000:00:00
ARGUS22026-09-04 13:44:0027.92923-83.19718335°35km/h10233m-4.1m/s-33.2°C0%0hPa0V00:00:0000:00:0000:00:00
ARGUS22026-09-04 13:43:4027.92775-83.19550320°53km/h10319m-4.3m/s-34.1°C0%0hPa0V00:00:0000:00:0000:00:00
ARGUS22026-09-04 13:43:1927.92624-83.19405300°37km/h10400m-4.2m/s-34.8°C0%0hPa0V00:00:0000:00:0000:00:00
ARGUS22026-09-04 13:42:5927.92468-83.19224330°33km/h10485m-4.2m/s-35.4°C0%0hPa0V00:00:0000:00:0000:00:00
ARGUS22026-09-04 13:42:3827.92330-83.19047316°55km/h10568m-4.3m/s-36.3°C0%0hPa0V00:00:0000:00:0000:00:00
ARGUS22026-09-04 13:42:1727.92167-83.18875300°42km/h10657m-4.3m/s-36.9°C0%0hPa0V00:00:0000:00:0000:00:00
ARGUS22026-09-04 13:41:5727.92008-83.18699321°33km/h10741m-4.2m/s-37.3°C0%0hPa0V00:00:0000:00:0000:00:00
ARGUS22026-09-04 13:41:3627.91862-83.18489324°51km/h10827m-4.2m/s-38.1°C0%0hPa0V00:00:0000:00:0000:00:00
ARGUS22026-09-04 13:41:1627.91720-83.18303300°53km/h10908m-4.1m/s-38.9°C0%0hPa0V00:00:0000:00:0000:00:00
ARGUS22026-09-04 13:40:5627.91542-83.18105309°35km/h10994m-4.1m/s-39.5°C0%0hPa0V00:00:0000:00:0000:00:00
ARGUS22026-09-04 13:40:3527.91381-83.17899328°53km/h11075m-3.8m/s-40.2°C0%0hPa0V00:00:0000:00:0000:00:00
ARGUS22026-09-04 13:40:1427.91216-83.17682309°64km/h11158m-4.1m/s-40.6°C0%0hPa0V00:00:0000:00:0000:00:00
ARGUS22026-09-04 13:39:5527.91054-83.17459293°51km/h11238m-4.0m/s-41.2°C0%0hPa0V00:00:0000:00:0000:00:00
ARGUS22026-09-04 13:39:3427.90887-83.17198303°40km/h11321m-3.8m/s-41.8°C0%0hPa0V00:00:0000:00:0000:00:00
ARGUS22026-09-04 13:39:1227.90738-83.16914316°55km/h11406m-4.0m/s-42.4°C0%0hPa0V00:00:0000:00:0000:00:00
ARGUS22026-09-04 13:38:5227.90594-83.16643304°69km/h11486m-4.2m/s-43.0°C0%0hPa0V00:00:0000:00:0000:00:00
ARGUS22026-09-04 13:38:3127.90438-83.16361291°64km/h11571m-4.0m/s-43.7°C0%0hPa0V00:00:0000:00:0000:00:00
ARGUS22026-09-04 13:38:1127.90278-83.16074299°46km/h11650m-4.1m/s-44.1°C0%0hPa0V00:00:0000:00:0000:00:00
ARGUS22026-09-04 13:37:5027.90124-83.15759314°55km/h11729m-4.0m/s-44.9°C0%0hPa0V00:00:0000:00:0000:00:00
ARGUS22026-09-04 13:37:3027.89993-83.15467301°73km/h11808m-4.1m/s-45.7°C0%0hPa0V00:00:0000:00:0000:00:00
ARGUS22026-09-04 13:37:0927.89848-83.15146292°73km/h11888m-3.8m/s-46.3°C0%0hPa0V00:00:0000:00:0000:00:00
ARGUS22026-09-04 13:36:4927.89677-83.14847296°49km/h11967m-3.8m/s-46.8°C0%0hPa0V00:00:0000:00:0000:00:00
ARGUS22026-09-04 13:36:2927.89479-83.14530317°55km/h12054m-4.2m/s-47.4°C0%0hPa0V00:00:0000:00:0000:00:00
ARGUS22026-09-04 13:36:0827.89287-83.14223317°73km/h12137m-4.2m/s-47.9°C0%0hPa0V00:00:0000:00:0000:00:00
ARGUS22026-09-04 13:35:4727.89089-83.13923307°78km/h12228m-4.4m/s-48.4°C0%0hPa0V00:00:0000:00:0000:00:00
ARGUS22026-09-04 13:35:2727.88897-83.13635293°62km/h12315m-4.2m/s-49.0°C0%0hPa0V00:00:0000:00:0000:00:00
ARGUS22026-09-04 13:35:0727.88708-83.13322292°57km/h12407m-4.5m/s-49.7°C0%0hPa0V00:00:0000:00:0000:00:00
ARGUS22026-09-04 13:34:4627.88530-83.13011302°49km/h12499m-4.7m/s-50.1°C0%0hPa0V00:00:0000:00:0000:00:00
ARGUS22026-09-04 13:34:2627.88361-83.12671310°55km/h12596m-4.8m/s-50.6°C0%0hPa0V00:00:0000:00:0000:00:00
ARGUS22026-09-04 13:34:0527.88238-83.12347305°69km/h12689m-4.6m/s-51.4°C0%0hPa0V00:00:0000:00:0000:00:00
ARGUS22026-09-04 13:33:4527.88115-83.12016290°77km/h12788m-4.9m/s-52.3°C0%0hPa0V00:00:0000:00:0000:00:00
ARGUS22026-09-04 13:33:2327.87992-83.11673280°69km/h12888m-4.7m/s-53.0°C0%0hPa0V00:00:0000:00:0000:00:00
ARGUS22026-09-04 13:32:4227.87763-83.10976295°49km/h13081m-4.7m/s-54.7°C0%0hPa0V00:00:0000:00:0000:00:00
ARGUS22026-09-04 13:32:2227.87666-83.10625303°68km/h13176m-4.8m/s-55.5°C0%0hPa0V00:00:0000:00:0000:00:00
ARGUS22026-09-04 13:32:0227.87547-83.10285303°73km/h13282m-5.5m/s-56.5°C0%0hPa0V00:00:0000:00:0000:00:00
ARGUS22026-09-04 13:31:4127.87411-83.09991287°69km/h13388m-5.3m/s-57.3°C0%0hPa0V00:00:0000:00:0000:00:00
ARGUS22026-09-04 13:31:2027.87271-83.09671281°58km/h13501m-5.6m/s-57.9°C0%0hPa0V00:00:0000:00:0000:00:00
ARGUS22026-09-04 13:31:0027.87136-83.09364295°42km/h13610m-5.3m/s-58.6°C0%0hPa0V00:00:0000:00:0000:00:00
ARGUS22026-09-04 13:30:4027.87010-83.09043313°49km/h13725m-5.2m/s-59.4°C0%0hPa0V00:00:0000:00:0000:00:00
ARGUS22026-09-04 13:30:1927.86901-83.08750304°68km/h13834m-5.1m/s-60.4°C0%0hPa0V00:00:0000:00:0000:00:00
ARGUS22026-09-04 13:29:5927.86809-83.08453285°68km/h13950m-5.6m/s-61.2°C0%0hPa0V00:00:0000:00:0000:00:00
ARGUS22026-09-04 13:29:3827.86738-83.08175268°53km/h14059m-5.3m/s-62.0°C0%0hPa0V00:00:0000:00:0000:00:00
ARGUS22026-09-04 13:29:1827.86660-83.07879280°35km/h14174m-5.2m/s-62.9°C0%0hPa0V00:00:0000:00:0000:00:00
ARGUS22026-09-04 13:28:5727.86593-83.07587303°44km/h14281m-5.2m/s-63.6°C0%0hPa0V00:00:0000:00:0000:00:00
ARGUS22026-09-04 13:28:3727.86530-83.07286302°58km/h14390m-4.7m/s-64.5°C0%0hPa0V00:00:0000:00:0000:00:00
ARGUS22026-09-04 13:28:1627.86464-83.07005285°69km/h14490m-5.0m/s-65.2°C0%0hPa0V00:00:0000:00:0000:00:00
ARGUS22026-09-04 13:27:5627.86388-83.06729269°55km/h14593m-4.8m/s-65.3°C0%0hPa0V00:00:0000:00:0000:00:00
ARGUS22026-09-04 13:27:3427.86304-83.06444274°40km/h14695m-4.7m/s-65.4°C0%0hPa0V00:00:0000:00:0000:00:00
ARGUS22026-09-04 13:27:1427.86201-83.06184319°38km/h14792m-4.9m/s-65.7°C0%0hPa0V00:00:0000:00:0000:00:00
ARGUS22026-09-04 13:26:5327.86068-83.05942325°53km/h14895m-4.7m/s-65.4°C0%0hPa0V00:00:0000:00:0000:00:00
ARGUS22026-09-04 13:26:3327.85952-83.05728296°64km/h14993m-5.0m/s-64.3°C0%0hPa0V00:00:0000:00:0000:00:00
ARGUS22026-09-04 13:26:1327.85838-83.05478292°64km/h15100m-5.6m/s-64.9°C0%0hPa0V00:00:0000:00:0000:00:00
ARGUS22026-09-04 13:25:5227.85712-83.05256282°40km/h15205m-5.0m/s-65.4°C0%0hPa0V00:00:0000:00:0000:00:00
ARGUS22026-09-04 13:25:3227.85553-83.05058319°26km/h15319m-5.5m/s-65.9°C0%0hPa0V00:00:0000:00:0000:00:00
ARGUS22026-09-04 13:25:1127.85400-83.04873341°46km/h15429m-5.5m/s-66.4°C0%0hPa0V00:00:0000:00:0000:00:00
ARGUS22026-09-04 13:24:5127.85245-83.04706334°46km/h15545m-5.2m/s-65.9°C0%0hPa0V00:00:0000:00:0000:00:00
ARGUS22026-09-04 13:24:3027.85167-83.04542291°51km/h15659m-5.6m/s-66.4°C0%0hPa0V00:00:0000:00:0000:00:00
ARGUS22026-09-04 13:24:1027.85103-83.04377274°46km/h15780m-5.7m/s-66.9°C0%0hPa0V00:00:0000:00:0000:00:00
ARGUS22026-09-04 13:23:4927.85058-83.04214238°26km/h15897m-5.9m/s-67.3°C0%0hPa0V00:00:0000:00:0000:00:00
ARGUS22026-09-04 13:23:2927.85044-83.04014276°16km/h16020m-5.6m/s-68.1°C0%0hPa0V00:00:0000:00:0000:00:00
ARGUS22026-09-04 13:23:0827.85077-83.03821280°47km/h16137m-5.8m/s-68.6°C0%0hPa0V00:00:0000:00:0000:00:00
ARGUS22026-09-04 13:22:4827.85109-83.03615266°55km/h16260m-6.1m/s-68.6°C0%0hPa0V00:00:0000:00:0000:00:00
ARGUS22026-09-04 13:22:2627.85126-83.03425246°46km/h16385m-5.9m/s-68.6°C0%0hPa0V00:00:0000:00:0000:00:00
ARGUS22026-09-04 13:22:0627.85109-83.03290227°4km/h16502m-5.9m/s-68.1°C0%0hPa0V00:00:0000:00:0000:00:00
ARGUS22026-09-04 13:21:4527.85046-83.03179351°22km/h16627m-5.8m/s-68.3°C0%0hPa0V00:00:0000:00:0000:00:00
ARGUS22026-09-04 13:21:2527.84993-83.03045311°49km/h16748m-6.1m/s-69.0°C0%0hPa0V00:00:0000:00:0000:00:00
ARGUS22026-09-04 13:21:0427.84898-83.02897297°49km/h16875m-6.1m/s-68.9°C0%0hPa0V00:00:0000:00:0000:00:00
ARGUS22026-09-04 13:20:4427.84827-83.02766230°20km/h16995m-6.1m/s-68.6°C0%0hPa0V00:00:0000:00:0000:00:00
ARGUS22026-09-04 13:20:2327.84797-83.02673103°13km/h17122m-6.4m/s-68.4°C0%0hPa0V00:00:0000:00:0000:00:00
ARGUS22026-09-04 13:20:0327.84812-83.02620329°20km/h17248m-6.3m/s-69.1°C0%0hPa0V00:00:0000:00:0000:00:00
ARGUS22026-09-04 13:19:4227.84831-83.02623317°16km/h17383m-6.2m/s-69.4°C0%0hPa0V00:00:0000:00:0000:00:00
ARGUS22026-09-04 13:19:2227.84818-83.02662198°24km/h17509m-6.7m/s-69.5°C0%0hPa0V00:00:0000:00:0000:00:00
ARGUS22026-09-04 13:18:4127.84925-83.02353289°31km/h17803m-7.4m/s-68.8°C0%0hPa0V00:00:0000:00:0000:00:00
ARGUS22026-09-04 13:18:2127.84947-83.02118297°53km/h17961m-7.4m/s-68.4°C0%0hPa0V00:00:0000:00:0000:00:00
ARGUS22026-09-04 13:18:0027.84899-83.01992242°27km/h18109m-7.7m/s-67.1°C0%0hPa0V00:00:0000:00:0000:00:00
ARGUS22026-09-04 13:17:4027.84892-83.01879183°24km/h18269m-7.4m/s-67.4°C0%0hPa0V00:00:0000:00:0000:00:00
ARGUS22026-09-04 13:17:1827.84949-83.01746199°15km/h18427m-7.3m/s-67.6°C0%0hPa0V00:00:0000:00:0000:00:00
ARGUS22026-09-04 13:16:5827.85020-83.01539291°38km/h18575m-7.7m/s-67.1°C0%0hPa0V00:00:0000:00:0000:00:00
ARGUS22026-09-04 13:16:3727.85081-83.01283275°71km/h18729m-7.2m/s-66.2°C0%0hPa0V00:00:0000:00:0000:00:00
ARGUS22026-09-04 13:16:1727.85066-83.01050251°47km/h18877m-7.4m/s-65.6°C0%0hPa0V00:00:0000:00:0000:00:00
ARGUS22026-09-04 13:15:5727.85019-83.00880201°16km/h19039m-7.5m/s-64.6°C0%0hPa0V00:00:0000:00:0000:00:00
ARGUS22026-09-04 13:15:3627.85011-83.00719343°24km/h19201m-8.0m/s-62.2°C0%0hPa0V00:00:0000:00:0000:00:00
ARGUS22026-09-04 13:15:1627.84958-83.00579350°31km/h19376m-8.0m/s-60.7°C0%0hPa0V00:00:0000:00:0000:00:00
ARGUS22026-09-04 13:14:5527.84991-83.00510262°38km/h19543m-8.3m/s-59.8°C0%0hPa0V00:00:0000:00:0000:00:00
ARGUS22026-09-04 13:14:3527.85067-83.00403244°57km/h19719m-8.6m/s-59.7°C0%0hPa0V00:00:0000:00:0000:00:00
ARGUS22026-09-04 13:14:1427.85069-83.00203227°29km/h19897m-8.7m/s-58.9°C0%0hPa0V00:00:0000:00:0000:00:00
ARGUS22026-09-04 13:13:5427.85084-83.00004207°20km/h20082m-8.8m/s-58.6°C0%0hPa0V00:00:0000:00:0000:00:00
ARGUS22026-09-04 13:13:3327.85106-82.99773324°35km/h20264m-8.8m/s-57.5°C0%0hPa0V00:00:0000:00:0000:00:00
ARGUS22026-09-04 13:13:1327.85008-82.99533336°44km/h20457m-8.9m/s-57.4°C0%0hPa0V00:00:0000:00:0000:00:00
ARGUS22026-09-04 13:12:5227.84970-82.99299305°53km/h20643m-9.0m/s-57.3°C0%0hPa0V00:00:0000:00:0000:00:00
ARGUS22026-09-04 13:12:3227.84998-82.99047274°71km/h20844m-9.9m/s-56.7°C0%0hPa0V00:00:0000:00:0000:00:00
ARGUS22026-09-04 13:12:1127.85015-82.98811243°64km/h21042m-10.3m/s-56.3°C0%0hPa0V00:00:0000:00:0000:00:00
ARGUS22026-09-04 13:11:5127.85039-82.98548244°68km/h21261m-10.7m/s-54.9°C0%0hPa0V00:00:0000:00:0000:00:00
ARGUS22026-09-04 13:11:2927.85011-82.98302241°49km/h21484m-10.3m/s-55.6°C0%0hPa0V00:00:0000:00:0000:00:00
ARGUS22026-09-04 13:11:0927.84964-82.98067225°15km/h21703m-10.7m/s-55.3°C0%0hPa0V00:00:0000:00:0000:00:00
ARGUS22026-09-04 13:10:4827.85000-82.97814287°18km/h21939m-11.2m/s-54.5°C0%0hPa0V00:00:0000:00:0000:00:00
ARGUS22026-09-04 13:10:2827.84999-82.97569318°55km/h22164m-10.7m/s-54.5°C0%0hPa0V00:00:0000:00:0000:00:00
ARGUS22026-09-04 13:10:0727.84979-82.97365296°60km/h22395m-10.7m/s-54.3°C0%0hPa0V00:00:0000:00:0000:00:00
ARGUS22026-09-04 13:09:4727.84960-82.97208244°51km/h22605m-10.4m/s-54.0°C0%0hPa0V00:00:0000:00:0000:00:00
ARGUS22026-09-04 13:09:2727.84973-82.96981242°4km/h22812m-9.0m/s-53.6°C0%0hPa0V00:00:0000:00:0000:00:00
ARGUS22026-09-04 13:09:0627.85079-82.96764271°82km/h23012m-9.8m/s-54.0°C0%0hPa0V00:00:0000:00:0000:00:00
ARGUS22026-09-04 13:08:4627.85139-82.96471259°80km/h23236m-11.1m/s-54.1°C0%0hPa0V00:00:0000:00:0000:00:00
ARGUS22026-09-04 13:08:2527.85159-82.96206259°77km/h23457m-12.6m/s-53.8°C0%0hPa0V00:00:0000:00:0000:00:00
ARGUS22026-09-04 13:08:0527.85106-82.95908278°80km/h23702m-11.4m/s-54.1°C0%0hPa0V00:00:0000:00:0000:00:00
ARGUS22026-09-04 13:07:4427.85094-82.95634280°82km/h23953m-12.8m/s-54.0°C0%0hPa0V00:00:0000:00:0000:00:00
ARGUS22026-09-04 13:07:2427.85069-82.95246301°89km/h24234m-13.7m/s-53.5°C0%0hPa0V00:00:0000:00:0000:00:00
ARGUS22026-09-04 13:07:0327.85063-82.94873296°64km/h24518m-14.1m/s-52.3°C0%0hPa0V00:00:0000:00:0000:00:00
ARGUS22026-09-04 13:06:4327.85108-82.94545291°37km/h24826m-14.4m/s-52.6°C0%0hPa0V00:00:0000:00:0000:00:00
ARGUS22026-09-04 13:06:2127.85164-82.94202243°27km/h25144m-14.9m/s-51.9°C0%0hPa0V00:00:0000:00:0000:00:00
ARGUS22026-09-04 13:06:0127.85176-82.93877230°24km/h25447m-14.9m/s-51.9°C0%0hPa0V00:00:0000:00:0000:00:00
ARGUS22026-09-04 13:05:4027.85230-82.93524232°75km/h25765m-14.2m/s-51.5°C0%0hPa0V00:00:0000:00:0000:00:00
ARGUS22026-09-04 13:05:2027.85275-82.93144229°64km/h26065m-15.5m/s-49.4°C0%0hPa0V00:00:0000:00:0000:00:00
ARGUS22026-09-04 13:04:5927.85308-82.92694243°40km/h26362m-14.3m/s-46.3°C0%0hPa0V00:00:0000:00:0000:00:00
ARGUS22026-09-04 13:04:3827.85342-82.92336304°11km/h26675m-13.1m/s-44.6°C0%0hPa0V00:00:0000:00:0000:00:00
ARGUS22026-09-04 13:04:1727.85387-82.92074324°40km/h27007m-16.2m/s-43.6°C0%0hPa0V00:00:0000:00:0000:00:00
ARGUS22026-09-04 13:02:0727.85716-82.90550262°66km/h29544m-35.3m/s-45.0°C0%0hPa0V00:00:0000:00:0000:00:00
ARGUS22026-09-04 13:01:4027.85685-82.90102270°49km/h30526m-36.8m/s-42.6°C0%0hPa0V00:00:0000:00:0000:00:00
ARGUS22026-09-04 13:01:2027.85701-82.89731276°64km/h31335m-40.4m/s-41.2°C0%0hPa0V00:00:0000:00:0000:00:00
ARGUS22026-09-04 13:00:5727.85549-82.89487324°46km/h32198m-33.8m/s-38.6°C0%0hPa0V00:00:0000:00:0000:00:00
ARGUS22026-09-04 13:00:3427.85444-82.89474293°27km/h32817m-21.5m/s-40.6°C0%0hPa0V00:00:0000:00:0000:00:00
ARGUS22026-09-04 13:00:1227.85596-82.89413187°46km/h33128m5.8m/s-41.1°C0%0hPa0V00:00:0000:00:0000:00:00
ARGUS22026-09-04 12:59:5027.85736-82.89405168°16km/h32937m5.7m/s-40.7°C0%0hPa0V00:00:0000:00:0000:00:00
ARGUS22026-09-04 12:59:2927.85813-82.89388212°58km/h32763m7.3m/s-39.5°C0%0hPa0V00:00:0000:00:0000:00:00
ARGUS22026-09-04 12:59:0227.85843-82.89375219°38km/h32560m8.7m/s-38.1°C0%0hPa0V00:00:0000:00:0000:00:00
ARGUS22026-09-04 12:58:1327.85656-82.89215330°44km/h32206m5.2m/s-37.7°C0%0hPa0V00:00:0000:00:0000:00:00
ARGUS22026-09-04 12:57:5227.85508-82.89036246°51km/h32063m5.4m/s-38.7°C0%0hPa0V00:00:0000:00:0000:00:00
ARGUS22026-09-04 12:57:3227.85369-82.88766318°77km/h31929m5.8m/s-39.6°C0%0hPa0V00:00:0000:00:0000:00:00
ARGUS22026-09-04 12:57:1127.85262-82.88450256°51km/h31794m5.7m/s-39.7°C0%0hPa0V00:00:0000:00:0000:00:00
ARGUS22026-09-04 12:56:4927.85198-82.88096304°80km/h31659m4.8m/s-41.2°C0%0hPa0V00:00:0000:00:0000:00:00
ARGUS22026-09-04 12:56:2727.85200-82.87679269°82km/h31511m8.8m/s-42.9°C0%0hPa0V00:00:0000:00:0000:00:00
ARGUS22026-09-04 12:56:0027.85230-82.87203272°66km/h31339m9.1m/s-43.2°C0%0hPa0V00:00:0000:00:0000:00:00
ARGUS22026-09-04 12:55:3727.85284-82.86776247°86km/h31181m4.0m/s-42.9°C0%0hPa0V00:00:0000:00:0000:00:00
ARGUS22026-09-04 12:55:1627.85260-82.86336271°46km/h31015m10.0m/s-43.0°C0%0hPa0V00:00:0000:00:0000:00:00
ARGUS22026-09-04 12:54:5427.85311-82.85986253°57km/h30837m8.1m/s-42.5°C0%0hPa0V00:00:0000:00:0000:00:00
ARGUS22026-09-04 12:54:3127.85388-82.85583268°49km/h30664m7.7m/s-42.5°C0%0hPa0V00:00:0000:00:0000:00:00
ARGUS22026-09-04 12:54:1027.85399-82.85295271°47km/h30513m8.8m/s-42.2°C0%0hPa0V00:00:0000:00:0000:00:00
ARGUS22026-09-04 12:53:5027.85382-82.84961301°66km/h30368m8.4m/s-41.9°C0%0hPa0V00:00:0000:00:0000:00:00
ARGUS22026-09-04 12:53:2727.85326-82.84620262°57km/h30206m5.3m/s-42.7°C0%0hPa0V00:00:0000:00:0000:00:00
ARGUS22026-09-04 12:53:0327.85275-82.84234275°57km/h30051m5.7m/s-43.5°C0%0hPa0V00:00:0000:00:0000:00:00
ARGUS22026-09-04 12:52:4327.85234-82.83885267°68km/h29925m7.4m/s-44.2°C0%0hPa0V00:00:0000:00:0000:00:00
ARGUS22026-09-04 12:52:2127.85242-82.83464276°88km/h29805m7.9m/s-45.1°C0%0hPa0V00:00:0000:00:0000:00:00
ARGUS22026-09-04 12:52:0027.85256-82.83028261°55km/h29689m2.6m/s-45.4°C0%0hPa0V00:00:0000:00:0000:00:00
ARGUS22026-09-04 12:51:2427.85361-82.82345269°89km/h29487m3.4m/s-45.3°C0%0hPa0V00:00:0000:00:0000:00:00
ARGUS22026-09-04 12:51:0227.85405-82.81914252°53km/h29361m3.9m/s-45.6°C0%0hPa0V00:00:0000:00:0000:00:00
ARGUS22026-09-04 12:50:4027.85412-82.81608272°88km/h29226m5.2m/s-46.3°C0%0hPa0V00:00:0000:00:0000:00:00
ARGUS22026-09-04 12:50:1627.85397-82.81186283°75km/h29077m4.5m/s-46.1°C0%0hPa0V00:00:0000:00:0000:00:00
ARGUS22026-09-04 12:49:5527.85392-82.80848276°71km/h28940m4.8m/s-45.9°C0%0hPa0V00:00:0000:00:0000:00:00
ARGUS22026-09-04 12:49:3327.85365-82.80434285°31km/h28783m8.4m/s-45.5°C0%0hPa0V00:00:0000:00:0000:00:00
ARGUS22026-09-04 12:49:1327.85325-82.80097278°66km/h28655m5.9m/s-44.8°C0%0hPa0V00:00:0000:00:0000:00:00
ARGUS22026-09-04 12:48:4227.85247-82.79606267°57km/h28449m6.6m/s-45.1°C0%0hPa0V00:00:0000:00:0000:00:00
ARGUS22026-09-04 12:48:2127.85245-82.79313265°69km/h28307m5.2m/s-45.0°C0%0hPa0V00:00:0000:00:0000:00:00
ARGUS22026-09-04 12:47:5927.85296-82.79023243°69km/h28156m4.8m/s-45.6°C0%0hPa0V00:00:0000:00:0000:00:00
ARGUS22026-09-04 12:47:3727.85411-82.78734237°68km/h28010m5.2m/s-46.9°C0%0hPa0V00:00:0000:00:0000:00:00
ARGUS22026-09-04 12:47:1627.85549-82.78447250°68km/h27875m7.2m/s-46.8°C0%0hPa0V00:00:0000:00:0000:00:00
ARGUS22026-09-04 12:46:5527.85653-82.78207251°55km/h27738m3.4m/s-46.4°C0%0hPa0V00:00:0000:00:0000:00:00
ARGUS22026-09-04 12:46:3427.85722-82.78027242°33km/h27604m4.6m/s-46.4°C0%0hPa0V00:00:0000:00:0000:00:00
ARGUS22026-09-04 12:46:1327.85775-82.77890279°33km/h27476m5.9m/s-46.4°C0%0hPa0V00:00:0000:00:0000:00:00
ARGUS22026-09-04 12:45:5227.85798-82.77713267°38km/h27350m4.8m/s-46.4°C0%0hPa0V00:00:0000:00:0000:00:00
ARGUS22026-09-04 12:45:3227.85817-82.77477276°47km/h27227m4.7m/s-46.7°C0%0hPa0V00:00:0000:00:0000:00:00
ARGUS22026-09-04 12:45:1127.85834-82.77209265°69km/h27091m2.7m/s-47.4°C0%0hPa0V00:00:0000:00:0000:00:00
ARGUS22026-09-04 12:44:5027.85886-82.76974259°58km/h26967m2.0m/s-47.5°C0%0hPa0V00:00:0000:00:0000:00:00
ARGUS22026-09-04 12:44:2827.85984-82.76719243°49km/h26828m6.8m/s-48.0°C0%0hPa0V00:00:0000:00:0000:00:00
ARGUS22026-09-04 12:44:0727.86037-82.76378256°49km/h26683m6.5m/s-48.3°C0%0hPa0V00:00:0000:00:0000:00:00
ARGUS22026-09-04 12:43:4727.86098-82.76111256°31km/h26565m4.4m/s-48.5°C0%0hPa0V00:00:0000:00:0000:00:00
ARGUS22026-09-04 12:43:2627.86121-82.75791272°55km/h26449m4.2m/s-49.1°C0%0hPa0V00:00:0000:00:0000:00:00
ARGUS22026-09-04 12:43:0527.86173-82.75381270°69km/h26326m4.9m/s-49.7°C0%0hPa0V00:00:0000:00:0000:00:00
ARGUS22026-09-04 12:42:4527.86235-82.74966257°78km/h26205m7.6m/s-51.3°C0%0hPa0V00:00:0000:00:0000:00:00
ARGUS22026-09-04 12:42:2327.86337-82.74544237°82km/h26090m3.0m/s-51.9°C0%0hPa0V00:00:0000:00:0000:00:00
ARGUS22026-09-04 12:42:0227.86417-82.74165266°58km/h25974m6.9m/s-52.4°C0%0hPa0V00:00:0000:00:0000:00:00
ARGUS22026-09-04 12:41:4227.86448-82.73824276°49km/h25853m5.6m/s-53.1°C0%0hPa0V00:00:0000:00:0000:00:00
ARGUS22026-09-04 12:41:2227.86501-82.73479267°47km/h25741m6.6m/s-53.0°C0%0hPa0V00:00:0000:00:0000:00:00
ARGUS22026-09-04 12:41:0127.86580-82.73086258°57km/h25618m4.0m/s-53.2°C0%0hPa0V00:00:0000:00:0000:00:00
ARGUS22026-09-04 12:40:4027.86633-82.72736259°40km/h25483m5.8m/s-52.4°C0%0hPa0V00:00:0000:00:0000:00:00
ARGUS22026-09-04 12:40:2027.86661-82.72463268°57km/h25358m7.4m/s-51.9°C0%0hPa0V00:00:0000:00:0000:00:00
ARGUS22026-09-04 12:39:5927.86653-82.72186283°55km/h25232m5.9m/s-51.9°C0%0hPa0V00:00:0000:00:0000:00:00
ARGUS22026-09-04 12:39:3927.86624-82.71874271°60km/h25097m7.8m/s-51.7°C0%0hPa0V00:00:0000:00:0000:00:00
ARGUS22026-09-04 12:39:1927.86642-82.71557266°51km/h24960m7.4m/s-51.1°C0%0hPa0V00:00:0000:00:0000:00:00
ARGUS22026-09-04 12:38:5827.86698-82.71219263°64km/h24815m8.4m/s-50.6°C0%0hPa0V00:00:0000:00:0000:00:00
ARGUS22026-09-04 12:38:3727.86748-82.70891254°64km/h24677m7.6m/s-51.2°C0%0hPa0V00:00:0000:00:0000:00:00
ARGUS22026-09-04 12:38:1727.86790-82.70569278°53km/h24545m7.6m/s-51.1°C0%0hPa0V00:00:0000:00:0000:00:00
ARGUS22026-09-04 12:37:5527.86821-82.70234266°66km/h24419m6.5m/s-50.9°C0%0hPa0V00:00:0000:00:0000:00:00
ARGUS22026-09-04 12:37:3527.86838-82.69931282°66km/h24300m5.5m/s-50.5°C0%0hPa0V00:00:0000:00:0000:00:00
ARGUS22026-09-04 12:37:1427.86832-82.69602262°51km/h24180m5.6m/s-50.9°C0%0hPa0V00:00:0000:00:0000:00:00
ARGUS22026-09-04 12:36:5427.86834-82.69243274°69km/h24073m5.6m/s-52.1°C0%0hPa0V00:00:0000:00:0000:00:00
ARGUS22026-09-04 12:36:3427.86792-82.68802274°95km/h23969m2.2m/s-53.5°C0%0hPa0V00:00:0000:00:0000:00:00
ARGUS22026-09-04 12:36:1327.86802-82.68400270°78km/h23875m0.8m/s-54.2°C0%0hPa0V00:00:0000:00:0000:00:00
ARGUS22026-09-04 12:35:5227.86830-82.68061271°68km/h23770m5.5m/s-54.5°C0%0hPa0V00:00:0000:00:0000:00:00
ARGUS22026-09-04 12:35:3227.86831-82.67740262°46km/h23667m3.6m/s-55.1°C0%0hPa0V00:00:0000:00:0000:00:00
ARGUS22026-09-04 12:35:1227.86812-82.67384284°68km/h23548m6.1m/s-55.1°C0%0hPa0V00:00:0000:00:0000:00:00
ARGUS22026-09-04 12:34:3027.86823-82.66708260°53km/h23291m7.8m/s-55.3°C0%0hPa0V00:00:0000:00:0000:00:00
ARGUS22026-09-04 12:34:1027.86890-82.66415269°57km/h23157m6.1m/s-55.4°C0%0hPa0V00:00:0000:00:0000:00:00
ARGUS22026-09-04 12:33:5027.86951-82.66077263°69km/h23019m6.8m/s-55.1°C0%0hPa0V00:00:0000:00:0000:00:00
ARGUS22026-09-04 12:33:2927.87018-82.65806240°38km/h22894m7.4m/s-55.2°C0%0hPa0V00:00:0000:00:0000:00:00
ARGUS22026-09-04 12:33:0927.87060-82.65598247°35km/h22776m5.9m/s-55.2°C0%0hPa0V00:00:0000:00:0000:00:00
ARGUS22026-09-04 12:32:4727.87081-82.65355275°37km/h22663m5.7m/s-56.1°C0%0hPa0V00:00:0000:00:0000:00:00
ARGUS22026-09-04 12:32:2727.87040-82.65155272°33km/h22561m4.1m/s-56.6°C0%0hPa0V00:00:0000:00:0000:00:00
ARGUS22026-09-04 12:32:0627.87019-82.64921279°51km/h22459m5.4m/s-56.9°C0%0hPa0V00:00:0000:00:0000:00:00
ARGUS22026-09-04 12:31:4627.86949-82.64692309°44km/h22360m6.2m/s-57.3°C0%0hPa0V00:00:0000:00:0000:00:00
ARGUS22026-09-04 12:31:2527.86875-82.64474282°35km/h22254m5.5m/s-57.5°C0%0hPa0V00:00:0000:00:0000:00:00
ARGUS22026-09-04 12:31:0427.86857-82.64213285°18km/h22146m2.6m/s-58.0°C0%0hPa0V00:00:0000:00:0000:00:00
ARGUS22026-09-04 12:30:4327.86862-82.63959242°33km/h22035m4.8m/s-58.1°C0%0hPa0V00:00:0000:00:0000:00:00
ARGUS22026-09-04 12:30:2227.86859-82.63754319°31km/h21911m6.0m/s-58.9°C0%0hPa0V00:00:0000:00:0000:00:00
ARGUS22026-09-04 12:30:0227.86772-82.63540298°31km/h21789m5.0m/s-58.7°C0%0hPa0V00:00:0000:00:0000:00:00
ARGUS22026-09-04 12:29:4127.86707-82.63332293°42km/h21671m7.2m/s-57.9°C0%0hPa0V00:00:0000:00:0000:00:00
ARGUS22026-09-04 12:29:2127.86627-82.63092293°42km/h21550m6.3m/s-57.8°C0%0hPa0V00:00:0000:00:0000:00:00
ARGUS22026-09-04 12:29:0027.86595-82.62856272°53km/h21433m5.7m/s-57.1°C0%0hPa0V00:00:0000:00:0000:00:00
ARGUS22026-09-04 12:28:3927.86621-82.62606273°40km/h21316m4.4m/s-57.7°C0%0hPa0V00:00:0000:00:0000:00:00
ARGUS22026-09-04 12:28:1927.86640-82.62385276°31km/h21205m5.6m/s-58.2°C0%0hPa0V00:00:0000:00:0000:00:00
ARGUS22026-09-04 12:27:5927.86668-82.62154257°44km/h21099m4.8m/s-58.5°C0%0hPa0V00:00:0000:00:0000:00:00
ARGUS22026-09-04 12:27:3827.86686-82.61942264°37km/h21004m3.4m/s-58.6°C0%0hPa0V00:00:0000:00:0000:00:00
ARGUS22026-09-04 12:27:1827.86703-82.61696274°46km/h20903m4.3m/s-58.7°C0%0hPa0V00:00:0000:00:0000:00:00
ARGUS22026-09-04 12:26:5727.86718-82.61471276°47km/h20802m6.8m/s-59.2°C0%0hPa0V00:00:0000:00:0000:00:00
ARGUS22026-09-04 12:26:3727.86698-82.61253288°27km/h20692m6.3m/s-59.7°C0%0hPa0V00:00:0000:00:0000:00:00
ARGUS22026-09-04 12:26:1627.86623-82.61068308°42km/h20585m5.4m/s-60.5°C0%0hPa0V00:00:0000:00:0000:00:00
ARGUS22026-09-04 12:25:5627.86560-82.60871282°26km/h20467m5.9m/s-60.3°C0%0hPa0V00:00:0000:00:0000:00:00
ARGUS22026-09-04 12:25:3427.86549-82.60693256°40km/h20350m4.6m/s-60.6°C0%0hPa0V00:00:0000:00:0000:00:00
ARGUS22026-09-04 12:25:1427.86597-82.60547260°29km/h20232m6.7m/s-60.8°C0%0hPa0V00:00:0000:00:0000:00:00
ARGUS22026-09-04 12:24:5427.86637-82.60419260°16km/h20109m3.6m/s-60.6°C0%0hPa0V00:00:0000:00:0000:00:00
ARGUS22026-09-04 12:24:3327.86662-82.60307259°27km/h19997m4.9m/s-60.4°C0%0hPa0V00:00:0000:00:0000:00:00
ARGUS22026-09-04 12:24:1227.86676-82.60134253°31km/h19884m4.6m/s-60.5°C0%0hPa0V00:00:0000:00:0000:00:00
ARGUS22026-09-04 12:23:5227.86727-82.59971242°24km/h19777m5.7m/s-60.7°C0%0hPa0V00:00:0000:00:0000:00:00
ARGUS22026-09-04 12:23:3227.86804-82.59879210°24km/h19675m4.7m/s-61.6°C0%0hPa0V00:00:0000:00:0000:00:00
ARGUS22026-09-04 12:23:1127.86838-82.59831113°2km/h19578m6.2m/s-62.0°C0%0hPa0V00:00:0000:00:0000:00:00
ARGUS22026-09-04 12:22:5127.86849-82.59780307°11km/h19480m5.3m/s-63.5°C0%0hPa0V00:00:0000:00:0000:00:00
ARGUS22026-09-04 12:22:3027.86803-82.59677284°24km/h19383m4.3m/s-64.3°C0%0hPa0V00:00:0000:00:0000:00:00
ARGUS22026-09-04 12:22:1027.86759-82.59551259°29km/h19276m5.4m/s-65.1°C0%0hPa0V00:00:0000:00:0000:00:00
ARGUS22026-09-04 12:21:4927.86745-82.59426265°18km/h19171m5.2m/s-65.7°C0%0hPa0V00:00:0000:00:0000:00:00
ARGUS22026-09-04 12:21:2927.86702-82.59339335°24km/h19056m5.2m/s-66.3°C0%0hPa0V00:00:0000:00:0000:00:00
ARGUS22026-09-04 12:21:0827.86610-82.59231298°27km/h18949m6.6m/s-66.3°C0%0hPa0V00:00:0000:00:0000:00:00
ARGUS22026-09-04 12:20:4827.86527-82.59055299°37km/h18831m6.9m/s-66.0°C0%0hPa0V00:00:0000:00:0000:00:00
ARGUS22026-09-04 12:20:2627.86487-82.58817259°47km/h18699m6.4m/s-66.1°C0%0hPa0V00:00:0000:00:0000:00:00
ARGUS22026-09-04 12:20:0627.86521-82.58565254°55km/h18579m5.3m/s-66.4°C0%0hPa0V00:00:0000:00:0000:00:00
ARGUS22026-09-04 12:19:4527.86580-82.58328235°40km/h18457m4.5m/s-66.7°C0%0hPa0V00:00:0000:00:0000:00:00
ARGUS22026-09-04 12:19:2527.86624-82.58139251°26km/h18348m3.8m/s-66.9°C0%0hPa0V00:00:0000:00:0000:00:00
ARGUS22026-09-04 12:19:0527.86682-82.57972244°29km/h18239m5.3m/s-67.1°C0%0hPa0V00:00:0000:00:0000:00:00
ARGUS22026-09-04 12:18:4427.86706-82.57864265°26km/h18136m4.5m/s-66.7°C0%0hPa0V00:00:0000:00:0000:00:00
ARGUS22026-09-04 12:18:2427.86702-82.57738294°31km/h18030m4.4m/s-67.5°C0%0hPa0V00:00:0000:00:0000:00:00
ARGUS22026-09-04 12:18:0327.86666-82.57588252°26km/h17930m5.7m/s-68.1°C0%0hPa0V00:00:0000:00:0000:00:00
ARGUS22026-09-04 12:17:4327.86696-82.57354256°51km/h17822m6.5m/s-68.9°C0%0hPa0V00:00:0000:00:0000:00:00
ARGUS22026-09-04 12:17:2227.86789-82.57101236°44km/h17724m4.8m/s-69.5°C0%0hPa0V00:00:0000:00:0000:00:00
ARGUS22026-09-04 12:16:4127.87065-82.56738223°40km/h17503m4.0m/s-69.0°C0%0hPa0V00:00:0000:00:0000:00:00
ARGUS22026-09-04 12:16:2127.87189-82.56640218°26km/h17395m5.4m/s-69.0°C0%0hPa0V00:00:0000:00:0000:00:00
ARGUS22026-09-04 12:16:0027.87282-82.56567226°24km/h17289m6.2m/s-69.8°C0%0hPa0V00:00:0000:00:0000:00:00
ARGUS22026-09-04 12:15:4027.87353-82.56458229°18km/h17169m5.7m/s-69.7°C0%0hPa0V00:00:0000:00:0000:00:00
ARGUS22026-09-04 12:15:1827.87430-82.56269256°44km/h17057m5.1m/s-70.7°C0%0hPa0V00:00:0000:00:0000:00:00
ARGUS22026-09-04 12:14:5827.87456-82.56031277°40km/h16951m6.4m/s-70.5°C0%0hPa0V00:00:0000:00:0000:00:00
ARGUS22026-09-04 12:14:3727.87459-82.55766265°46km/h16842m5.2m/s-70.7°C0%0hPa0V00:00:0000:00:0000:00:00
ARGUS22026-09-04 12:14:1727.87509-82.55547252°40km/h16739m6.1m/s-71.6°C0%0hPa0V00:00:0000:00:0000:00:00
ARGUS22026-09-04 12:13:5627.87577-82.55336249°38km/h16628m4.5m/s-71.8°C0%0hPa0V00:00:0000:00:0000:00:00
ARGUS22026-09-04 12:13:3627.87636-82.55130256°40km/h16528m5.4m/s-71.5°C0%0hPa0V00:00:0000:00:0000:00:00
ARGUS22026-09-04 12:13:1627.87690-82.54919261°42km/h16422m5.7m/s-71.4°C0%0hPa0V00:00:0000:00:0000:00:00
ARGUS22026-09-04 12:12:5527.87749-82.54741260°26km/h16320m5.3m/s-71.1°C0%0hPa0V00:00:0000:00:0000:00:00
ARGUS22026-09-04 12:12:3527.87768-82.54575273°22km/h16214m4.8m/s-70.7°C0%0hPa0V00:00:0000:00:0000:00:00
ARGUS22026-09-04 12:12:1427.87768-82.54398255°22km/h16116m5.1m/s-69.9°C0%0hPa0V00:00:0000:00:0000:00:00
ARGUS22026-09-04 12:11:5427.87780-82.54212268°29km/h16010m5.8m/s-69.1°C0%0hPa0V00:00:0000:00:0000:00:00
ARGUS22026-09-04 12:11:3327.87774-82.54045276°26km/h15909m6.1m/s-68.6°C0%0hPa0V00:00:0000:00:0000:00:00
ARGUS22026-09-04 12:11:1327.87740-82.53890285°29km/h15805m4.1m/s-68.3°C0%0hPa0V00:00:0000:00:0000:00:00
ARGUS22026-09-04 12:10:5227.87686-82.53735287°38km/h15704m4.2m/s-68.5°C0%0hPa0V00:00:0000:00:0000:00:00
ARGUS22026-09-04 12:10:3227.87572-82.53560311°37km/h15600m5.9m/s-68.5°C0%0hPa0V00:00:0000:00:0000:00:00
ARGUS22026-09-04 12:10:1127.87456-82.53374303°49km/h15501m5.6m/s-68.4°C0%0hPa0V00:00:0000:00:0000:00:00
ARGUS22026-09-04 12:09:5127.87349-82.53146287°47km/h15395m5.0m/s-68.0°C0%0hPa0V00:00:0000:00:0000:00:00
ARGUS22026-09-04 12:09:2927.87260-82.52889289°38km/h15288m3.8m/s-67.4°C0%0hPa0V00:00:0000:00:0000:00:00
ARGUS22026-09-04 12:09:1027.87208-82.52634281°42km/h15184m4.3m/s-66.7°C0%0hPa0V00:00:0000:00:0000:00:00
ARGUS22026-09-04 12:08:4827.87171-82.52363302°33km/h15069m3.9m/s-65.9°C0%0hPa0V00:00:0000:00:0000:00:00
ARGUS22026-09-04 12:08:2827.87124-82.52137284°42km/h14958m5.2m/s-67.0°C0%0hPa0V00:00:0000:00:0000:00:00
ARGUS22026-09-04 12:08:0827.87051-82.51887295°37km/h14853m6.1m/s-67.4°C0%0hPa0V00:00:0000:00:0000:00:00
ARGUS22026-09-04 12:07:4727.86995-82.51652284°42km/h14754m4.4m/s-66.8°C0%0hPa0V00:00:0000:00:0000:00:00
ARGUS22026-09-04 12:07:2627.86954-82.51398274°46km/h14648m3.7m/s-66.3°C0%0hPa0V00:00:0000:00:0000:00:00
ARGUS22026-09-04 12:07:0627.86923-82.51140272°49km/h14554m3.2m/s-65.7°C0%0hPa0V00:00:0000:00:0000:00:00
ARGUS22026-09-04 12:06:4627.86909-82.50864272°46km/h14456m5.1m/s-65.5°C0%0hPa0V00:00:0000:00:0000:00:00
ARGUS22026-09-04 12:06:2527.86888-82.50593265°53km/h14360m4.8m/s-65.0°C0%0hPa0V00:00:0000:00:0000:00:00
ARGUS22026-09-04 12:06:0527.86842-82.50314287°38km/h14247m5.6m/s-64.6°C0%0hPa0V00:00:0000:00:0000:00:00
ARGUS22026-09-04 12:05:4427.86751-82.50060284°46km/h14144m3.6m/s-63.7°C0%0hPa0V00:00:0000:00:0000:00:00
ARGUS22026-09-04 12:05:2427.86650-82.49799300°46km/h14047m3.3m/s-62.9°C0%0hPa0V00:00:0000:00:0000:00:00
ARGUS22026-09-04 12:05:0327.86568-82.49553292°46km/h13935m4.1m/s-62.2°C0%0hPa0V00:00:0000:00:0000:00:00
ARGUS22026-09-04 12:04:4327.86452-82.49274296°49km/h13819m7.0m/s-61.2°C0%0hPa0V00:00:0000:00:0000:00:00
ARGUS22026-09-04 12:04:2127.86322-82.48991303°57km/h13703m6.8m/s-60.3°C0%0hPa0V00:00:0000:00:0000:00:00
ARGUS22026-09-04 12:04:0127.86199-82.48734303°60km/h13599m2.3m/s-59.3°C0%0hPa0V00:00:0000:00:0000:00:00
ARGUS22026-09-04 12:03:4027.86083-82.48473307°51km/h13484m6.8m/s-58.3°C0%0hPa0V00:00:0000:00:0000:00:00
ARGUS22026-09-04 12:03:2027.85967-82.48234304°53km/h13385m4.4m/s-57.4°C0%0hPa0V00:00:0000:00:0000:00:00
ARGUS22026-09-04 12:03:0027.85844-82.47992307°49km/h13283m3.6m/s-56.5°C0%0hPa0V00:00:0000:00:0000:00:00
ARGUS22026-09-04 12:02:3927.85726-82.47765308°40km/h13188m5.4m/s-55.7°C0%0hPa0V00:00:0000:00:0000:00:00
ARGUS22026-09-04 12:02:1827.85606-82.47543295°42km/h13084m5.8m/s-54.9°C0%0hPa0V00:00:0000:00:0000:00:00
ARGUS22026-09-04 12:01:5827.85488-82.47337295°33km/h12981m3.9m/s-54.1°C0%0hPa0V00:00:0000:00:0000:00:00
ARGUS22026-09-04 12:01:3827.85352-82.47138301°46km/h12874m5.6m/s-53.2°C0%0hPa0V00:00:0000:00:0000:00:00
ARGUS22026-09-04 12:01:1727.85221-82.46958309°42km/h12771m6.3m/s-52.2°C0%0hPa0V00:00:0000:00:0000:00:00
ARGUS22026-09-04 12:00:5727.85078-82.46756312°40km/h12661m3.6m/s-51.3°C0%0hPa0V00:00:0000:00:0000:00:00
ARGUS22026-09-04 12:00:3627.84931-82.46568313°47km/h12553m6.8m/s-50.7°C0%0hPa0V00:00:0000:00:0000:00:00
ARGUS22026-09-04 12:00:1627.84778-82.46346306°49km/h12443m4.5m/s-50.1°C0%0hPa0V00:00:0000:00:0000:00:00
ARGUS22026-09-04 11:59:3527.84532-82.45869292°49km/h12225m5.5m/s-48.5°C0%0hPa0V00:00:0000:00:0000:00:00
ARGUS22026-09-04 11:58:5327.84299-82.45396309°46km/h12021m5.1m/s-46.8°C0%0hPa0V00:00:0000:00:0000:00:00
ARGUS22026-09-04 11:58:3327.84155-82.45148298°47km/h11925m3.8m/s-46.1°C0%0hPa0V00:00:0000:00:0000:00:00
ARGUS22026-09-04 11:58:1227.84030-82.44919304°44km/h11826m6.4m/s-45.7°C0%0hPa0V00:00:0000:00:0000:00:00
ARGUS22026-09-04 11:57:5127.83881-82.44663308°51km/h11723m5.5m/s-44.9°C0%0hPa0V00:00:0000:00:0000:00:00
ARGUS22026-09-04 11:57:3127.83730-82.44410303°47km/h11637m5.2m/s-44.2°C0%0hPa0V00:00:0000:00:0000:00:00
ARGUS22026-09-04 11:57:1027.83571-82.44154303°47km/h11547m5.0m/s-43.5°C0%0hPa0V00:00:0000:00:0000:00:00
ARGUS22026-09-04 11:56:5027.83418-82.43918306°49km/h11458m4.3m/s-42.7°C0%0hPa0V00:00:0000:00:0000:00:00
ARGUS22026-09-04 11:56:3027.83273-82.43660303°55km/h11366m3.1m/s-42.0°C0%0hPa0V00:00:0000:00:0000:00:00
ARGUS22026-09-04 11:56:0927.83143-82.43423310°44km/h11280m3.8m/s-41.5°C0%0hPa0V00:00:0000:00:0000:00:00
ARGUS22026-09-04 11:55:4927.83018-82.43178310°44km/h11195m3.6m/s-40.9°C0%0hPa0V00:00:0000:00:0000:00:00
ARGUS22026-09-04 11:55:2827.82907-82.42956295°42km/h11116m4.7m/s-40.3°C0%0hPa0V00:00:0000:00:0000:00:00
ARGUS22026-09-04 11:55:0827.82795-82.42728304°38km/h11032m3.3m/s-39.7°C0%0hPa0V00:00:0000:00:0000:00:00
ARGUS22026-09-04 11:54:4727.82690-82.42502287°42km/h10948m3.7m/s-39.1°C0%0hPa0V00:00:0000:00:0000:00:00
ARGUS22026-09-04 11:54:2727.82575-82.42269297°51km/h10859m3.2m/s-38.8°C0%0hPa0V00:00:0000:00:0000:00:00
ARGUS22026-09-04 11:54:0627.82453-82.42051293°44km/h10775m2.9m/s-38.2°C0%0hPa0V00:00:0000:00:0000:00:00
ARGUS22026-09-04 11:53:4627.82317-82.41828312°46km/h10680m5.3m/s-37.6°C0%0hPa0V00:00:0000:00:0000:00:00
ARGUS22026-09-04 11:53:2427.82160-82.41634316°40km/h10590m4.5m/s-36.8°C0%0hPa0V00:00:0000:00:0000:00:00
ARGUS22026-09-04 11:53:0427.82014-82.41444309°47km/h10503m4.4m/s-36.0°C0%0hPa0V00:00:0000:00:0000:00:00
ARGUS22026-09-04 11:52:4327.81870-82.41235304°51km/h10396m5.4m/s-35.2°C0%0hPa0V00:00:0000:00:0000:00:00
ARGUS22026-09-04 11:51:4227.81363-82.40764343°49km/h10098m5.7m/s-33.1°C0%0hPa0V00:00:0000:00:0000:00:00
ARGUS22026-09-04 11:51:2227.81184-82.40658329°29km/h10000m4.2m/s-32.4°C0%0hPa0V00:00:0000:00:0000:00:00
ARGUS22026-09-04 11:50:4127.80858-82.40427323°31km/h9810m5.6m/s-30.9°C0%0hPa0V00:00:0000:00:0000:00:00
ARGUS22026-09-04 11:50:2027.80705-82.40311322°29km/h9716m5.3m/s-30.0°C0%0hPa0V00:00:0000:00:0000:00:00
ARGUS22026-09-04 11:50:0027.80552-82.40192329°26km/h9617m4.6m/s-29.3°C0%0hPa0V00:00:0000:00:0000:00:00
ARGUS22026-09-04 11:49:3927.80424-82.40056320°37km/h9527m5.3m/s-28.6°C0%0hPa0V00:00:0000:00:0000:00:00
ARGUS22026-09-04 11:49:1927.80287-82.39908325°35km/h9425m6.6m/s-27.7°C0%0hPa0V00:00:0000:00:0000:00:00
ARGUS22026-09-04 11:48:5827.80151-82.39768328°38km/h9316m5.6m/s-26.9°C0%0hPa0V00:00:0000:00:0000:00:00
ARGUS22026-09-04 11:48:3827.79987-82.39640332°35km/h9222m5.2m/s-26.1°C0%0hPa0V00:00:0000:00:0000:00:00
ARGUS22026-09-04 11:48:1627.79824-82.39518336°37km/h9122m3.1m/s-25.3°C0%0hPa0V00:00:0000:00:0000:00:00
ARGUS22026-09-04 11:47:5627.79676-82.39410352°22km/h9039m4.1m/s-24.9°C0%0hPa0V00:00:0000:00:0000:00:00
ARGUS22026-09-04 11:47:3527.79497-82.39311335°37km/h8940m4.8m/s-24.1°C0%0hPa0V00:00:0000:00:0000:00:00
ARGUS22026-09-04 11:47:1527.79325-82.39218323°44km/h8855m3.8m/s-23.7°C0%0hPa0V00:00:0000:00:0000:00:00
ARGUS22026-09-04 11:46:5527.79161-82.39108322°29km/h8761m3.5m/s-23.0°C0%0hPa0V00:00:0000:00:0000:00:00
ARGUS22026-09-04 11:46:1427.78855-82.38909333°33km/h8582m3.6m/s-21.6°C0%0hPa0V00:00:0000:00:0000:00:00
ARGUS22026-09-04 11:45:5327.78707-82.38842350°35km/h8493m5.7m/s-21.1°C0%0hPa0V00:00:0000:00:0000:00:00
ARGUS22026-09-04 11:45:3327.78558-82.38779343°31km/h8398m4.6m/s-21.1°C0%0hPa0V00:00:0000:00:0000:00:00
ARGUS22026-09-04 11:45:1227.78424-82.38730347°33km/h8309m3.5m/s-20.6°C0%0hPa0V00:00:0000:00:0000:00:00
ARGUS22026-09-04 11:44:5227.78274-82.38676352°33km/h8211m3.9m/s-20.0°C0%0hPa0V00:00:0000:00:0000:00:00
ARGUS22026-09-04 11:44:3127.78132-82.38638355°31km/h8113m5.1m/s-19.3°C0%0hPa0V00:00:0000:00:0000:00:00
ARGUS22026-09-04 11:43:5127.77846-82.38582347°24km/h7920m6.0m/s-17.8°C0%0hPa0V00:00:0000:00:0000:00:00
ARGUS22026-09-04 11:43:3027.77693-82.3856711°16km/h7817m3.9m/s-17.0°C0%0hPa0V00:00:0000:00:0000:00:00
ARGUS22026-09-04 11:43:0927.77524-82.3858037km/h7709m4.9m/s-16.2°C0%0hPa0V00:00:0000:00:0000:00:00
ARGUS22026-09-04 11:42:4927.77392-82.38542334°29km/h7571m5.6m/s-15.0°C0%0hPa0V00:00:0000:00:0000:00:00
ARGUS22026-09-04 11:42:2727.77269-82.38470316°27km/h7469m4.6m/s-14.3°C0%0hPa0V00:00:0000:00:0000:00:00
ARGUS22026-09-04 11:42:0727.77166-82.38405337°22km/h7370m5.6m/s-14.1°C0%0hPa0V00:00:0000:00:0000:00:00
ARGUS22026-09-04 11:41:4727.77063-82.38342356°16km/h7267m5.7m/s-13.3°C0%0hPa0V00:00:0000:00:0000:00:00
ARGUS22026-09-04 11:41:2627.76973-82.38279318°27km/h7172m5.8m/s-12.7°C0%0hPa0V00:00:0000:00:0000:00:00
ARGUS22026-09-04 11:41:0627.76861-82.38237333°18km/h7057m4.7m/s-12.0°C0%0hPa0V00:00:0000:00:0000:00:00
ARGUS22026-09-04 11:40:4527.76761-82.38194294°24km/h6958m6.4m/s-11.9°C0%0hPa0V00:00:0000:00:0000:00:00
ARGUS22026-09-04 11:40:2427.76637-82.3816844°26km/h6835m6.5m/s-11.4°C0%0hPa0V00:00:0000:00:0000:00:00
ARGUS22026-09-04 11:40:0327.76530-82.38164350°26km/h6705m3.3m/s-10.4°C0%0hPa0V00:00:0000:00:0000:00:00
ARGUS22026-09-04 11:39:0327.76142-82.38198296°13km/h6406m4.2m/s-8.9°C0%0hPa0V00:00:0000:00:0000:00:00
ARGUS22026-09-04 11:38:4227.76046-82.38190348°20km/h6303m4.7m/s-8.4°C0%0hPa0V00:00:0000:00:0000:00:00
ARGUS22026-09-04 11:38:2227.75940-82.3817713°31km/h6205m4.8m/s-7.8°C0%0hPa0V00:00:0000:00:0000:00:00
ARGUS22026-09-04 11:38:0127.75861-82.38207358°26km/h6089m4.6m/s-7.6°C0%0hPa0V00:00:0000:00:0000:00:00
ARGUS22026-09-04 11:37:4127.75765-82.38229358°24km/h5982m8.2m/s-6.8°C0%0hPa0V00:00:0000:00:0000:00:00
ARGUS22026-09-04 11:37:1927.75684-82.38234359°29km/h5844m6.1m/s-5.8°C0%0hPa0V00:00:0000:00:0000:00:00
ARGUS22026-09-04 11:36:5927.75605-82.38242332°29km/h5752m5.6m/s-5.2°C0%0hPa0V00:00:0000:00:0000:00:00
ARGUS22026-09-04 11:36:3927.75500-82.3828660°27km/h5631m5.4m/s-4.2°C0%0hPa0V00:00:0000:00:0000:00:00
ARGUS22026-09-04 11:36:1827.75416-82.38336358°29km/h5520m4.0m/s-3.5°C0%0hPa0V00:00:0000:00:0000:00:00
ARGUS22026-09-04 11:35:5727.75348-82.3836762°26km/h5403m6.0m/s-2.7°C0%0hPa0V00:00:0000:00:0000:00:00
ARGUS22026-09-04 11:35:3827.75264-82.3839542°35km/h5290m6.6m/s-2.0°C0%0hPa0V00:00:0000:00:0000:00:00
ARGUS22026-09-04 11:35:1627.75173-82.3844426km/h5171m6.1m/s-1.2°C0%0hPa0V00:00:0000:00:0000:00:00
ARGUS22026-09-04 11:34:5627.75094-82.3846940km/h5061m6.4m/s-0.8°C0%0hPa0V00:00:0000:00:0000:00:00
ARGUS22026-09-04 11:34:2727.74921-82.3850432°33km/h4871m4.9m/s0.3°C0%0hPa0V00:00:0000:00:0000:00:00
ARGUS22026-09-04 11:34:0627.74812-82.3854433°33km/h4751m4.7m/s1.0°C0%0hPa0V00:00:0000:00:0000:00:00
ARGUS22026-09-04 11:33:4527.74673-82.3858232°11km/h4640m5.5m/s1.8°C0%0hPa0V00:00:0000:00:0000:00:00
ARGUS22026-09-04 11:33:2427.74542-82.3866043°29km/h4530m4.6m/s2.6°C0%0hPa0V00:00:0000:00:0000:00:00
ARGUS22026-09-04 11:33:0327.74420-82.3871454°7km/h4414m6.9m/s3.4°C0%0hPa0V00:00:0000:00:0000:00:00
ARGUS22026-09-04 11:32:4027.74298-82.3880761°7km/h4279m4.9m/s4.6°C0%0hPa0V00:00:0000:00:0000:00:00
ARGUS22026-09-04 11:32:2027.74179-82.3885044°11km/h4162m4.6m/s5.2°C0%0hPa0V00:00:0000:00:0000:00:00
ARGUS22026-09-04 11:31:5727.74054-82.38877361°29km/h4040m6.1m/s5.9°C0%0hPa0V00:00:0000:00:0000:00:00
ARGUS22026-09-04 11:31:3727.73972-82.38868338°35km/h3915m4.7m/s6.5°C0%0hPa0V00:00:0000:00:0000:00:00
ARGUS22026-09-04 11:31:1627.73877-82.38862319°9km/h3816m5.7m/s7.0°C0%0hPa0V00:00:0000:00:0000:00:00
ARGUS22026-09-04 11:30:5627.73767-82.3886535°24km/h3698m4.2m/s7.9°C0%0hPa0V00:00:0000:00:0000:00:00
ARGUS22026-09-04 11:28:1627.73030-82.3908135°29km/h2793m5.4m/s11.1°C0%0hPa0V00:00:0000:00:0000:00:00


GPX KML Map

© wettersonde.net (DO2JMG) - 2026  -  -